sensor_id;sensor_type;location;lat;lon;timestamp;pressure;altitude;pressure_sealevel;temperature;humidity
37634;BME280;32048;49.902;22.508;2023-04-08T00:00:53;99047.00;;;1.17;100.00
37634;BME280;32048;49.902;22.508;2023-04-08T00:03:21;99046.09;;;1.21;100.00
37634;BME280;32048;49.902;22.508;2023-04-08T00:05:48;99042.63;;;1.22;100.00
37634;BME280;32048;49.902;22.508;2023-04-08T00:08:15;99045.22;;;1.22;100.00
37634;BME280;32048;49.902;22.508;2023-04-08T00:10:42;99041.72;;;1.24;100.00
37634;BME280;32048;49.902;22.508;2023-04-08T00:13:09;99045.22;;;1.20;100.00
37634;BME280;32048;49.902;22.508;2023-04-08T00:15:36;99048.72;;;1.19;100.00
37634;BME280;32048;49.902;22.508;2023-04-08T00:18:03;99043.56;;;1.12;100.00
37634;BME280;32048;49.902;22.508;2023-04-08T00:20:30;99041.91;;;1.06;100.00
37634;BME280;32048;49.902;22.508;2023-04-08T00:22:57;99040.25;;;0.99;100.00
37634;BME280;32048;49.902;22.508;2023-04-08T00:25:24;99046.38;;;0.90;100.00
37634;BME280;32048;49.902;22.508;2023-04-08T00:27:51;99042.97;;;0.83;100.00
37634;BME280;32048;49.902;22.508;2023-04-08T00:30:18;99046.50;;;0.75;100.00
37634;BME280;32048;49.902;22.508;2023-04-08T00:32:45;99040.47;;;0.70;100.00
37634;BME280;32048;49.902;22.508;2023-04-08T00:35:13;99042.25;;;0.63;100.00
37634;BME280;32048;49.902;22.508;2023-04-08T00:37:40;99041.41;;;0.58;100.00
37634;BME280;32048;49.902;22.508;2023-04-08T00:40:07;99046.69;;;0.50;100.00
37634;BME280;32048;49.902;22.508;2023-04-08T00:42:35;99044.09;;;0.44;100.00
37634;BME280;32048;49.902;22.508;2023-04-08T00:45:02;99050.22;;;0.37;100.00
37634;BME280;32048;49.902;22.508;2023-04-08T00:47:30;99051.13;;;0.28;100.00
37634;BME280;32048;49.902;22.508;2023-04-08T00:49:57;99058.97;;;0.24;100.00
37634;BME280;32048;49.902;22.508;2023-04-08T00:52:24;99052.06;;;0.19;100.00
37634;BME280;32048;49.902;22.508;2023-04-08T00:54:51;99050.38;;;0.12;100.00
37634;BME280;32048;49.902;22.508;2023-04-08T00:57:18;99047.78;;;0.06;100.00
37634;BME280;32048;49.902;22.508;2023-04-08T00:59:45;99050.41;;;0.02;100.00
37634;BME280;32048;49.902;22.508;2023-04-08T01:02:31;99059.06;;;-0.03;100.00
37634;BME280;32048;49.902;22.508;2023-04-08T01:05:06;99072.97;;;-0.07;100.00
37634;BME280;32048;49.902;22.508;2023-04-08T01:07:36;99068.66;;;-0.12;100.00
37634;BME280;32048;49.902;22.508;2023-04-08T01:10:11;99068.66;;;-0.18;100.00
37634;BME280;32048;49.902;22.508;2023-04-08T01:12:55;99068.72;;;-0.31;100.00
37634;BME280;32048;49.902;22.508;2023-04-08T01:15:27;99074.81;;;-0.38;100.00
37634;BME280;32048;49.902;22.508;2023-04-08T01:17:56;99071.31;;;-0.38;100.00
37634;BME280;32048;49.902;22.508;2023-04-08T01:20:26;99075.66;;;-0.36;100.00
37634;BME280;32048;49.902;22.508;2023-04-08T01:25:30;99073.91;;;-0.34;100.00
37634;BME280;32048;49.902;22.508;2023-04-08T01:27:59;99070.47;;;-0.31;100.00
37634;BME280;32048;49.902;22.508;2023-04-08T01:30:28;99073.03;;;-0.27;100.00
37634;BME280;32048;49.902;22.508;2023-04-08T01:32:58;99075.59;;;-0.25;100.00
37634;BME280;32048;49.902;22.508;2023-04-08T01:35:25;99078.22;;;-0.22;100.00
37634;BME280;32048;49.902;22.508;2023-04-08T01:37:54;99070.41;;;-0.17;100.00
37634;BME280;32048;49.902;22.508;2023-04-08T01:40:22;99076.44;;;-0.12;100.00
37634;BME280;32048;49.902;22.508;2023-04-08T01:42:52;99074.69;;;-0.06;100.00
37634;BME280;32048;49.902;22.508;2023-04-08T01:45:21;99084.19;;;-0.02;100.00
37634;BME280;32048;49.902;22.508;2023-04-08T01:47:49;99085.03;;;0.04;100.00
37634;BME280;32048;49.902;22.508;2023-04-08T01:50:18;99084.13;;;0.11;100.00
37634;BME280;32048;49.902;22.508;2023-04-08T01:52:48;99081.50;;;0.15;100.00
37634;BME280;32048;49.902;22.508;2023-04-08T01:55:16;99081.47;;;0.23;100.00
37634;BME280;32048;49.902;22.508;2023-04-08T01:57:49;99074.50;;;0.28;100.00
37634;BME280;32048;49.902;22.508;2023-04-08T02:00:27;99084.03;;;0.34;100.00
37634;BME280;32048;49.902;22.508;2023-04-08T02:02:55;99083.16;;;0.32;100.00
37634;BME280;32048;49.902;22.508;2023-04-08T02:05:23;99081.44;;;0.28;100.00
37634;BME280;32048;49.902;22.508;2023-04-08T02:07:51;99078.88;;;0.23;100.00
37634;BME280;32048;49.902;22.508;2023-04-08T02:10:18;99083.22;;;0.23;100.00
37634;BME280;32048;49.902;22.508;2023-04-08T02:12:45;99083.22;;;0.21;100.00
37634;BME280;32048;49.902;22.508;2023-04-08T02:15:13;99087.56;;;0.20;100.00
37634;BME280;32048;49.902;22.508;2023-04-08T02:17:51;99088.41;;;0.23;100.00
37634;BME280;32048;49.902;22.508;2023-04-08T02:20:52;99088.41;;;0.21;100.00
37634;BME280;32048;49.902;22.508;2023-04-08T02:23:24;99096.19;;;0.24;100.00
37634;BME280;32048;49.902;22.508;2023-04-08T02:25:55;99095.31;;;0.25;100.00
37634;BME280;32048;49.902;22.508;2023-04-08T02:28:25;99091.84;;;0.28;100.00
37634;BME280;32048;49.902;22.508;2023-04-08T02:30:53;99084.91;;;0.30;100.00
37634;BME280;32048;49.902;22.508;2023-04-08T02:33:22;99099.59;;;0.34;100.00
37634;BME280;32048;49.902;22.508;2023-04-08T02:35:50;99096.16;;;0.32;100.00
37634;BME280;32048;49.902;22.508;2023-04-08T02:38:20;99094.41;;;0.34;100.00
37634;BME280;32048;49.902;22.508;2023-04-08T02:40:48;99096.16;;;0.32;100.00
37634;BME280;32048;49.902;22.508;2023-04-08T02:43:16;99100.47;;;0.34;100.00
37634;BME280;32048;49.902;22.508;2023-04-08T02:45:44;99096.13;;;0.36;100.00
37634;BME280;32048;49.902;22.508;2023-04-08T02:48:11;99100.44;;;0.39;100.00
37634;BME280;32048;49.902;22.508;2023-04-08T02:50:38;99099.56;;;0.41;100.00
37634;BME280;32048;49.902;22.508;2023-04-08T02:53:07;99097.78;;;0.47;100.00
37634;BME280;32048;49.902;22.508;2023-04-08T02:55:35;99100.34;;;0.51;100.00
37634;BME280;32048;49.902;22.508;2023-04-08T02:58:01;99094.28;;;0.55;100.00
37634;BME280;32048;49.902;22.508;2023-04-08T03:00:29;99098.59;;;0.59;100.00
37634;BME280;32048;49.902;22.508;2023-04-08T03:02:56;99100.28;;;0.60;100.00
37634;BME280;32048;49.902;22.508;2023-04-08T03:05:26;99096.84;;;0.61;100.00
37634;BME280;32048;49.902;22.508;2023-04-08T03:07:53;99095.94;;;0.66;100.00
37634;BME280;32048;49.902;22.508;2023-04-08T03:10:20;99092.50;;;0.65;100.00
37634;BME280;32048;49.902;22.508;2023-04-08T03:12:47;99093.31;;;0.67;100.00
37634;BME280;32048;49.902;22.508;2023-04-08T03:15:14;99101.97;;;0.71;100.00
37634;BME280;32048;49.902;22.508;2023-04-08T03:17:41;99101.94;;;0.74;100.00
37634;BME280;32048;49.902;22.508;2023-04-08T03:20:08;99099.34;;;0.74;100.00
37634;BME280;32048;49.902;22.508;2023-04-08T03:22:36;99095.00;;;0.76;100.00
37634;BME280;32048;49.902;22.508;2023-04-08T03:25:03;99096.75;;;0.75;100.00
37634;BME280;32048;49.902;22.508;2023-04-08T03:27:30;99101.09;;;0.76;100.00
37634;BME280;32048;49.902;22.508;2023-04-08T03:29:57;99108.00;;;0.77;100.00
37634;BME280;32048;49.902;22.508;2023-04-08T03:32:25;99108.00;;;0.77;100.00
37634;BME280;32048;49.902;22.508;2023-04-08T03:34:52;99113.19;;;0.76;100.00
37634;BME280;32048;49.902;22.508;2023-04-08T03:37:19;99114.09;;;0.76;100.00
37634;BME280;32048;49.902;22.508;2023-04-08T03:39:46;99112.34;;;0.75;100.00
37634;BME280;32048;49.902;22.508;2023-04-08T03:42:13;99115.81;;;0.73;100.00
37634;BME280;32048;49.902;22.508;2023-04-08T03:44:41;99114.97;;;0.71;100.00
37634;BME280;32048;49.902;22.508;2023-04-08T03:47:08;99119.31;;;0.70;100.00
37634;BME280;32048;49.902;22.508;2023-04-08T03:49:35;99122.75;;;0.71;100.00
37634;BME280;32048;49.902;22.508;2023-04-08T03:52:02;99121.91;;;0.69;100.00
37634;BME280;32048;49.902;22.508;2023-04-08T03:54:29;99122.75;;;0.69;100.00
37634;BME280;32048;49.902;22.508;2023-04-08T03:56:56;99127.97;;;0.69;100.00
37634;BME280;32048;49.902;22.508;2023-04-08T03:59:23;99121.91;;;0.70;100.00
37634;BME280;32048;49.902;22.508;2023-04-08T04:01:50;99124.47;;;0.72;100.00
37634;BME280;32048;49.902;22.508;2023-04-08T04:04:20;99127.06;;;0.72;100.00
37634;BME280;32048;49.902;22.508;2023-04-08T04:06:47;99127.97;;;0.71;100.00
37634;BME280;32048;49.902;22.508;2023-04-08T04:09:15;99130.53;;;0.74;100.00
37634;BME280;32048;49.902;22.508;2023-04-08T04:11:42;99133.13;;;0.77;100.00
37634;BME280;32048;49.902;22.508;2023-04-08T04:14:09;99127.03;;;0.79;100.00
37634;BME280;32048;49.902;22.508;2023-04-08T04:16:36;99122.69;;;0.81;100.00
37634;BME280;32048;49.902;22.508;2023-04-08T04:19:03;99127.00;;;0.82;100.00
37634;BME280;32048;49.902;22.508;2023-04-08T04:21:31;99135.69;;;0.80;100.00
37634;BME280;32048;49.902;22.508;2023-04-08T04:23:58;99131.38;;;0.79;100.00
37634;BME280;32048;49.902;22.508;2023-04-08T04:26:25;99134.00;;;0.79;100.00
37634;BME280;32048;49.902;22.508;2023-04-08T04:28:53;99141.78;;;0.76;100.00
37634;BME280;32048;49.902;22.508;2023-04-08T04:31:21;99138.34;;;0.75;100.00
37634;BME280;32048;49.902;22.508;2023-04-08T04:33:49;99139.19;;;0.77;100.00
37634;BME280;32048;49.902;22.508;2023-04-08T04:36:16;99137.44;;;0.78;100.00
37634;BME280;32048;49.902;22.508;2023-04-08T04:38:44;99143.50;;;0.80;100.00
37634;BME280;32048;49.902;22.508;2023-04-08T04:41:13;99140.00;;;0.82;100.00
37634;BME280;32048;49.902;22.508;2023-04-08T04:43:40;99137.38;;;0.87;100.00
37634;BME280;32048;49.902;22.508;2023-04-08T04:46:07;99143.44;;;0.89;100.00
37634;BME280;32048;49.902;22.508;2023-04-08T04:48:35;99137.34;;;0.93;100.00
37634;BME280;32048;49.902;22.508;2023-04-08T04:51:02;99144.25;;;0.97;100.00
37634;BME280;32048;49.902;22.508;2023-04-08T04:53:30;99151.16;;;1.01;100.00
37634;BME280;32048;49.902;22.508;2023-04-08T04:55:57;99160.69;;;1.04;100.00
37634;BME280;32048;49.902;22.508;2023-04-08T04:58:27;99163.28;;;1.06;100.00
37634;BME280;32048;49.902;22.508;2023-04-08T05:00:55;99168.44;;;1.09;100.00
37634;BME280;32048;49.902;22.508;2023-04-08T05:03:22;99161.50;;;1.09;100.00
37634;BME280;32048;49.902;22.508;2023-04-08T05:05:53;99177.09;;;1.12;100.00
37634;BME280;32048;49.902;22.508;2023-04-08T05:08:20;99175.31;;;1.14;100.00
37634;BME280;32048;49.902;22.508;2023-04-08T05:10:47;99168.38;;;1.18;100.00
37634;BME280;32048;49.902;22.508;2023-04-08T05:13:17;99170.94;;;1.22;100.00
37634;BME280;32048;49.902;22.508;2023-04-08T05:15:44;99176.09;;;1.27;100.00
37634;BME280;32048;49.902;22.508;2023-04-08T05:18:12;99176.06;;;1.33;100.00
37634;BME280;32048;49.902;22.508;2023-04-08T05:20:39;99170.81;;;1.38;100.00
37634;BME280;32048;49.902;22.508;2023-04-08T05:23:06;99168.19;;;1.44;100.00
37634;BME280;32048;49.902;22.508;2023-04-08T05:25:34;99161.19;;;1.51;100.00
37634;BME280;32048;49.902;22.508;2023-04-08T05:28:02;99163.69;;;1.60;100.00
37634;BME280;32048;49.902;22.508;2023-04-08T05:30:30;99167.09;;;1.66;100.00
37634;BME280;32048;49.902;22.508;2023-04-08T05:32:57;99161.81;;;1.74;100.00
37634;BME280;32048;49.902;22.508;2023-04-08T05:35:27;99175.63;;;1.81;100.00
37634;BME280;32048;49.902;22.508;2023-04-08T05:37:54;99181.63;;;1.89;100.00
37634;BME280;32048;49.902;22.508;2023-04-08T05:40:21;99171.19;;;1.94;100.00
37634;BME280;32048;49.902;22.508;2023-04-08T05:42:49;99169.38;;;2.00;100.00
37634;BME280;32048;49.902;22.508;2023-04-08T05:45:16;99166.66;;;2.08;100.00
37634;BME280;32048;49.902;22.508;2023-04-08T05:47:43;99160.53;;;2.14;100.00
37634;BME280;32048;49.902;22.508;2023-04-08T05:50:10;99166.50;;;2.22;100.00
37634;BME280;32048;49.902;22.508;2023-04-08T05:52:41;99164.72;;;2.27;100.00
37634;BME280;32048;49.902;22.508;2023-04-08T05:55:10;99165.53;;;2.34;100.00
37634;BME280;32048;49.902;22.508;2023-04-08T05:57:41;99182.81;;;2.39;100.00
37634;BME280;32048;49.902;22.508;2023-04-08T06:00:09;99184.56;;;2.40;100.00
37634;BME280;32048;49.902;22.508;2023-04-08T06:02:37;99181.06;;;2.40;100.00
37634;BME280;32048;49.902;22.508;2023-04-08T06:05:05;99188.00;;;2.41;100.00
37634;BME280;32048;49.902;22.508;2023-04-08T06:07:33;99192.31;;;2.43;100.00
37634;BME280;32048;49.902;22.508;2023-04-08T06:10:00;99185.34;;;2.44;100.00
37634;BME280;32048;49.902;22.508;2023-04-08T06:12:28;99189.66;;;2.49;100.00
37634;BME280;32048;49.902;22.508;2023-04-08T06:14:55;99189.59;;;2.56;100.00
37634;BME280;32048;49.902;22.508;2023-04-08T06:17:22;99191.22;;;2.61;100.00
37634;BME280;32048;49.902;22.508;2023-04-08T06:19:49;99193.72;;;2.69;100.00
37634;BME280;32048;49.902;22.508;2023-04-08T06:22:16;99191.09;;;2.72;100.00
37634;BME280;32048;49.902;22.508;2023-04-08T06:24:46;99204.03;;;2.80;100.00
37634;BME280;32048;49.902;22.508;2023-04-08T06:27:13;99196.97;;;2.88;100.00
37634;BME280;32048;49.902;22.508;2023-04-08T06:29:40;99204.72;;;2.94;100.00
37634;BME280;32048;49.902;22.508;2023-04-08T06:32:09;99205.50;;;2.98;100.00
37634;BME280;32048;49.902;22.508;2023-04-08T06:34:36;99202.88;;;3.01;100.00
37634;BME280;32048;49.902;22.508;2023-04-08T06:37:04;99205.44;;;3.02;100.00
37634;BME280;32048;49.902;22.508;2023-04-08T06:39:32;99204.59;;;3.03;100.00
37634;BME280;32048;49.902;22.508;2023-04-08T06:41:59;99207.19;;;3.03;100.00
37634;BME280;32048;49.902;22.508;2023-04-08T06:44:27;99205.44;;;3.04;100.00
37634;BME280;32048;49.902;22.508;2023-04-08T06:46:54;99208.94;;;3.03;100.00
37634;BME280;32048;49.902;22.508;2023-04-08T06:49:21;99201.13;;;3.03;100.00
37634;BME280;32048;49.902;22.508;2023-04-08T06:51:49;99209.81;;;3.00;100.00
37634;BME280;32048;49.902;22.508;2023-04-08T06:54:16;99218.53;;;3.01;100.00
37634;BME280;32048;49.902;22.508;2023-04-08T06:56:43;99219.34;;;3.04;100.00
37634;BME280;32048;49.902;22.508;2023-04-08T06:59:10;99216.72;;;3.06;100.00
37634;BME280;32048;49.902;22.508;2023-04-08T07:01:37;99226.22;;;3.10;100.00
37634;BME280;32048;49.902;22.508;2023-04-08T07:04:04;99221.81;;;3.13;100.00
37634;BME280;32048;49.902;22.508;2023-04-08T07:06:31;99223.56;;;3.11;100.00
37634;BME280;32048;49.902;22.508;2023-04-08T07:08:58;99224.41;;;3.17;100.00
37634;BME280;32048;49.902;22.508;2023-04-08T07:11:26;99234.78;;;3.20;100.00
37634;BME280;32048;49.902;22.508;2023-04-08T07:13:53;99230.34;;;3.25;100.00
37634;BME280;32048;49.902;22.508;2023-04-08T07:16:20;99236.41;;;3.28;100.00
37634;BME280;32048;49.902;22.508;2023-04-08T07:18:47;99238.03;;;3.34;100.00
37634;BME280;32048;49.902;22.508;2023-04-08T07:21:14;99237.94;;;3.42;100.00
37634;BME280;32048;49.902;22.508;2023-04-08T07:23:42;99234.25;;;3.53;100.00
37634;BME280;32048;49.902;22.508;2023-04-08T07:26:09;99236.72;;;3.63;100.00
37634;BME280;32048;49.902;22.508;2023-04-08T07:28:36;99238.31;;;3.74;100.00
37634;BME280;32048;49.902;22.508;2023-04-08T07:31:17;99242.47;;;3.83;100.00
37634;BME280;32048;49.902;22.508;2023-04-08T07:33:44;99238.91;;;3.90;100.00
37634;BME280;32048;49.902;22.508;2023-04-08T07:36:12;99222.22;;;3.98;100.00
37634;BME280;32048;49.902;22.508;2023-04-08T07:38:40;99236.88;;;4.06;100.00
37634;BME280;32048;49.902;22.508;2023-04-08T07:41:07;99242.84;;;4.13;100.00
37634;BME280;32048;49.902;22.508;2023-04-08T07:43:34;99237.50;;;4.19;100.00
37634;BME280;32048;49.902;22.508;2023-04-08T07:46:04;99234.78;;;4.25;100.00
37634;BME280;32048;49.902;22.508;2023-04-08T07:48:32;99229.44;;;4.31;100.00
37634;BME280;32048;49.902;22.508;2023-04-08T07:51:07;99238.13;;;4.33;100.00
37634;BME280;32048;49.902;22.508;2023-04-08T07:53:37;99238.03;;;4.36;100.00
37634;BME280;32048;49.902;22.508;2023-04-08T07:56:12;99244.13;;;4.38;100.00
37634;BME280;32048;49.902;22.508;2023-04-08T07:58:39;99247.63;;;4.37;100.00
37634;BME280;32048;49.902;22.508;2023-04-08T08:01:18;99248.63;;;4.30;100.00
37634;BME280;32048;49.902;22.508;2023-04-08T08:03:46;99262.00;;;4.15;100.00
37634;BME280;32048;49.902;22.508;2023-04-08T08:06:14;99259.59;;;4.01;100.00
37634;BME280;32048;49.902;22.508;2023-04-08T08:08:42;99265.75;;;3.99;100.00
37634;BME280;32048;49.902;22.508;2023-04-08T08:11:09;99264.03;;;3.96;100.00
37634;BME280;32048;49.902;22.508;2023-04-08T08:13:36;99269.25;;;3.99;100.00
37634;BME280;32048;49.902;22.508;2023-04-08T08:16:03;99266.72;;;3.91;100.00
37634;BME280;32048;49.902;22.508;2023-04-08T08:18:35;99260.56;;;3.95;100.00
37634;BME280;32048;49.902;22.508;2023-04-08T08:21:02;99263.94;;;4.04;100.00
37634;BME280;32048;49.902;22.508;2023-04-08T08:23:29;99266.25;;;4.19;100.00
37634;BME280;32048;49.902;22.508;2023-04-08T08:26:01;99265.19;;;4.31;100.00
37634;BME280;32048;49.902;22.508;2023-04-08T08:28:29;99265.78;;;4.44;100.00
37634;BME280;32048;49.902;22.508;2023-04-08T08:30:56;99258.41;;;4.66;100.00
37634;BME280;32048;49.902;22.508;2023-04-08T08:33:24;99261.44;;;4.89;100.00
37634;BME280;32048;49.902;22.508;2023-04-08T08:35:51;99260.22;;;5.04;100.00
37634;BME280;32048;49.902;22.508;2023-04-08T08:38:18;99262.59;;;5.16;100.00
37634;BME280;32048;49.902;22.508;2023-04-08T08:40:45;99261.38;;;5.31;100.00
37634;BME280;32048;49.902;22.508;2023-04-08T08:43:12;99253.94;;;5.52;100.00
37634;BME280;32048;49.902;22.508;2023-04-08T08:45:41;99258.72;;;5.72;100.00
37634;BME280;32048;49.902;22.508;2023-04-08T08:48:08;99262.66;;;5.88;100.00
37634;BME280;32048;49.902;22.508;2023-04-08T08:50:35;99271.25;;;5.93;100.00
37634;BME280;32048;49.902;22.508;2023-04-08T08:53:02;99262.56;;;5.91;100.00
37634;BME280;32048;49.902;22.508;2023-04-08T08:55:31;99270.53;;;5.88;100.00
37634;BME280;32048;49.902;22.508;2023-04-08T08:58:19;99283.31;;;5.65;100.00
37634;BME280;32048;49.902;22.508;2023-04-08T09:00:46;99283.03;;;5.38;100.00
37634;BME280;32048;49.902;22.508;2023-04-08T09:03:20;99281.75;;;5.18;100.00
37634;BME280;32048;49.902;22.508;2023-04-08T09:05:59;99291.72;;;4.99;100.00
37634;BME280;32048;49.902;22.508;2023-04-08T09:08:34;99288.38;;;4.93;100.00
37634;BME280;32048;49.902;22.508;2023-04-08T09:11:18;99290.25;;;4.86;100.00
37634;BME280;32048;49.902;22.508;2023-04-08T09:13:47;99297.47;;;4.75;100.00
37634;BME280;32048;49.902;22.508;2023-04-08T09:16:16;99298.63;;;4.60;100.00
37634;BME280;32048;49.902;22.508;2023-04-08T09:18:45;99289.22;;;4.50;100.00
37634;BME280;32048;49.902;22.508;2023-04-08T09:21:14;99291.91;;;4.47;100.00
37634;BME280;32048;49.902;22.508;2023-04-08T09:23:45;99291.81;;;4.51;100.00
37634;BME280;32048;49.902;22.508;2023-04-08T09:26:14;99288.22;;;4.57;100.00
37634;BME280;32048;49.902;22.508;2023-04-08T09:28:43;99295.09;;;4.63;100.00
37634;BME280;32048;49.902;22.508;2023-04-08T09:31:21;99295.94;;;4.63;100.00
37634;BME280;32048;49.902;22.508;2023-04-08T09:33:51;99292.28;;;4.73;100.00
37634;BME280;32048;49.902;22.508;2023-04-08T09:36:19;99296.41;;;4.85;100.00
37634;BME280;32048;49.902;22.508;2023-04-08T09:38:46;99294.31;;;5.01;100.00
37634;BME280;32048;49.902;22.508;2023-04-08T09:41:15;99299.25;;;5.16;100.00
37634;BME280;32048;49.902;22.508;2023-04-08T09:43:46;99299.91;;;5.26;100.00
37634;BME280;32048;49.902;22.508;2023-04-08T09:46:18;99307.66;;;5.31;100.00
37634;BME280;32048;49.902;22.508;2023-04-08T09:51:24;99299.47;;;5.46;100.00
37634;BME280;32048;49.902;22.508;2023-04-08T09:53:58;99293.19;;;5.53;100.00
37634;BME280;32048;49.902;22.508;2023-04-08T09:56:35;99298.31;;;5.58;100.00
37634;BME280;32048;49.902;22.508;2023-04-08T09:59:12;99301.75;;;5.60;100.00
37634;BME280;32048;49.902;22.508;2023-04-08T10:01:44;99303.59;;;5.56;100.00
37634;BME280;32048;49.902;22.508;2023-04-08T10:04:14;99315.16;;;5.46;100.00
37634;BME280;32048;49.902;22.508;2023-04-08T10:06:52;99317.28;;;5.29;100.00
37634;BME280;32048;49.902;22.508;2023-04-08T10:09:21;99318.34;;;5.20;100.00
37634;BME280;32048;49.902;22.508;2023-04-08T10:11:49;99317.53;;;5.18;100.00
37634;BME280;32048;49.902;22.508;2023-04-08T10:14:16;99320.09;;;5.19;100.00
37634;BME280;32048;49.902;22.508;2023-04-08T10:16:44;99317.44;;;5.23;100.00
37634;BME280;32048;49.902;22.508;2023-04-08T10:19:39;99311.19;;;5.28;100.00
37634;BME280;32048;49.902;22.508;2023-04-08T10:22:45;99311.81;;;5.39;100.00
37634;BME280;32048;49.902;22.508;2023-04-08T10:27:45;99305.31;;;5.57;100.00
37634;BME280;32048;49.902;22.508;2023-04-08T10:32:55;99308.94;;;5.89;100.00
37634;BME280;32048;49.902;22.508;2023-04-08T10:35:29;99305.13;;;6.04;100.00
37634;BME280;32048;49.902;22.508;2023-04-08T10:38:00;99308.31;;;6.17;100.00
37634;BME280;32048;49.902;22.508;2023-04-08T10:40:28;99308.78;;;5.97;100.00
37634;BME280;32048;49.902;22.508;2023-04-08T10:42:58;99309.97;;;5.82;100.00
37634;BME280;32048;49.902;22.508;2023-04-08T10:45:26;99317.25;;;5.69;100.00
37634;BME280;32048;49.902;22.508;2023-04-08T10:47:53;99313.81;;;5.67;100.00
37634;BME280;32048;49.902;22.508;2023-04-08T10:50:20;99307.72;;;5.67;100.00
37634;BME280;32048;49.902;22.508;2023-04-08T10:52:51;99307.59;;;5.73;100.00
37634;BME280;32048;49.902;22.508;2023-04-08T10:55:24;99313.81;;;5.67;100.00
37634;BME280;32048;49.902;22.508;2023-04-08T10:57:53;99304.25;;;5.66;100.00
37634;BME280;32048;49.902;22.508;2023-04-08T11:00:34;99308.44;;;5.73;100.00
37634;BME280;32048;49.902;22.508;2023-04-08T11:03:06;99292.50;;;5.82;100.00
37634;BME280;32048;49.902;22.508;2023-04-08T11:05:34;99308.19;;;5.84;100.00
37634;BME280;32048;49.902;22.508;2023-04-08T11:08:04;99296.84;;;5.83;100.00
37634;BME280;32048;49.902;22.508;2023-04-08T11:10:36;99302.72;;;5.95;100.00
37634;BME280;32048;49.902;22.508;2023-04-08T11:13:07;99308.06;;;5.90;100.00
37634;BME280;32048;49.902;22.508;2023-04-08T11:15:38;99302.63;;;5.98;100.00
37634;BME280;32048;49.902;22.508;2023-04-08T11:18:05;99297.88;;;6.14;100.00
37634;BME280;32048;49.902;22.508;2023-04-08T11:20:33;99305.81;;;6.12;100.00
37634;BME280;32048;49.902;22.508;2023-04-08T11:23:16;99292.63;;;6.14;100.00
37634;BME280;32048;49.902;22.508;2023-04-08T11:25:44;99287.81;;;6.31;100.00
37634;BME280;32048;49.902;22.508;2023-04-08T11:28:12;99291.03;;;6.42;100.00
37634;BME280;32048;49.902;22.508;2023-04-08T11:30:40;99307.03;;;6.66;100.00
37634;BME280;32048;49.902;22.508;2023-04-08T11:33:08;99296.69;;;6.91;100.00
37634;BME280;32048;49.902;22.508;2023-04-08T11:35:39;99293.13;;;7.23;100.00
37634;BME280;32048;49.902;22.508;2023-04-08T11:38:09;99303.41;;;7.59;100.00
37634;BME280;32048;49.902;22.508;2023-04-08T11:40:37;99301.25;;;7.74;100.00
37634;BME280;32048;49.902;22.508;2023-04-08T11:43:12;99304.47;;;7.82;100.00
37634;BME280;32048;49.902;22.508;2023-04-08T11:45:41;99291.69;;;7.98;100.00
37634;BME280;32048;49.902;22.508;2023-04-08T11:48:13;99302.84;;;8.04;100.00
37634;BME280;32048;49.902;22.508;2023-04-08T11:50:41;99296.97;;;8.23;100.00
37634;BME280;32048;49.902;22.508;2023-04-08T11:53:19;99298.91;;;8.18;100.00
37634;BME280;32048;49.902;22.508;2023-04-08T11:55:47;99290.16;;;8.44;100.00
37634;BME280;32048;49.902;22.508;2023-04-08T11:58:15;99287.31;;;8.75;100.00
37634;BME280;32048;49.902;22.508;2023-04-08T12:00:42;99291.78;;;8.97;94.83
37634;BME280;32048;49.902;22.508;2023-04-08T12:03:10;99280.22;;;9.24;96.97
37634;BME280;32048;49.902;22.508;2023-04-08T12:05:37;99292.38;;;9.28;89.75
37634;BME280;32048;49.902;22.508;2023-04-08T12:08:05;99284.22;;;9.34;89.21
37634;BME280;32048;49.902;22.508;2023-04-08T12:10:32;99276.66;;;9.49;93.14
37634;BME280;32048;49.902;22.508;2023-04-08T12:12:59;99274.03;;;9.71;88.33
37634;BME280;32048;49.902;22.508;2023-04-08T12:15:26;99274.13;;;9.90;87.90
37634;BME280;32048;49.902;22.508;2023-04-08T12:17:53;99274.31;;;9.85;81.67
37634;BME280;32048;49.902;22.508;2023-04-08T12:20:20;99268.94;;;10.09;81.57
37634;BME280;32048;49.902;22.508;2023-04-08T12:22:48;99270.75;;;10.29;80.91
37634;BME280;32048;49.902;22.508;2023-04-08T12:25:15;99265.97;;;10.38;79.14
37634;BME280;32048;49.902;22.508;2023-04-08T12:27:42;99267.16;;;10.31;81.83
37634;BME280;32048;49.902;22.508;2023-04-08T12:30:09;99251.97;;;10.36;77.87
37634;BME280;32048;49.902;22.508;2023-04-08T12:32:37;99248.94;;;10.46;81.84
37634;BME280;32048;49.902;22.508;2023-04-08T12:35:04;99248.97;;;10.65;76.77
37634;BME280;32048;49.902;22.508;2023-04-08T12:37:31;99255.25;;;10.62;76.70
37634;BME280;32048;49.902;22.508;2023-04-08T12:39:59;99262.88;;;10.49;76.83
37634;BME280;32048;49.902;22.508;2023-04-08T12:42:26;99245.66;;;10.40;77.39
37634;BME280;32048;49.902;22.508;2023-04-08T12:44:53;99240.25;;;10.22;77.41
37634;BME280;32048;49.902;22.508;2023-04-08T12:47:20;99257.13;;;9.97;78.37
37634;BME280;32048;49.902;22.508;2023-04-08T12:49:50;99249.34;;;9.72;79.01
37634;BME280;32048;49.902;22.508;2023-04-08T13:03:15;99242.31;;;10.95;75.38
37634;BME280;32048;49.902;22.508;2023-04-08T13:05:43;99251.97;;;10.96;74.04
37634;BME280;32048;49.902;22.508;2023-04-08T13:08:11;99244.41;;;11.08;70.71
37634;BME280;32048;49.902;22.508;2023-04-08T13:10:38;99245.25;;;11.08;73.21
37634;BME280;32048;49.902;22.508;2023-04-08T13:13:05;99250.59;;;11.07;73.10
37634;BME280;32048;49.902;22.508;2023-04-08T13:15:33;99247.31;;;11.01;74.55
37634;BME280;32048;49.902;22.508;2023-04-08T13:17:59;99248.88;;;10.87;72.48
37634;BME280;32048;49.902;22.508;2023-04-08T13:20:27;99239.19;;;10.67;76.37